KIAB/IAB METAR and TAF weather

Enter ICAO airport designator
Station Type Date Time Source
KIAB METAR 2020/12/05 04:56 UTC NOAA

KIAB 050456Z AUTO 24003KT 10SM CLR 03/M02 A3015 RMK AO2 SLP221 T00341016 $


Station Type Date Time Source
KIAB Decoded METAR 2020/12/05 04:56 UTC NOAA

McConnell Air Force Base, KS, United States (KIAB) 37-37N 097-16W
Dec 04, 2020 - 11:56 PM EST / 2020.12.05 0456 UTC
Wind: from the WSW (240 degrees) at 3 MPH (3 KT):0
Visibility: 10 mile(s):0
Sky conditions: clear
Temperature: 38.1 F (3.4 C)
Dew Point: 29.1 F (-1.6 C)
Relative Humidity: 69%
Pressure (altimeter): 30.15 in. Hg (1020 hPa)
ob: KIAB 050456Z AUTO 24003KT 10SM CLR 03/M02 A3015 RMK AO2 SLP221 T00341016
cycle: 5

Station Type Date Time Source
KIAB TAF 2020/12/05 02:57 UTC NOAA

TAF TAF KIAB 050200Z 0502/0608 VRB06KT 9999 SKC QNH3010INS
BECMG 0517/0518 34012G18KT 9999 SKC QNH3015INS
BECMG 0522/0523 34006KT 9999 SKC QNH3015INS TX08/0520Z TNM02/0511Z

Example: see airport list